»·PEaware :: N1507P KPSP-KGJT

N1507P :: KPSP-KGJT

FLIGHT INFORMATION

Flight Status: Arrived
Operator: Privately registered:
United States
More flights under this callsign
Pilot: Fabio L. (11512)
Aircraft: EMBRAER PHENOM 300
(E55P)
More flights by this aircraft type
Origin: KPSP Palm Springs Intl
United States
Destination: KGJT Grand Junction Regl
United States
More flights between these airports :: More routes between these airports
Route: CATH1 PSP LVELL Q73 GUNTR Q96 BAWER Q114 BUGGG JNC
File this flight plan on PilotEdge
Remarks: RMK / SIMBRIEF
Altitude:
(Current/Filed)
35,000ft
Speed:
(Current/Filed)
440kts
Departed: 08-Apr-21 09:31 AM
Arrived: 08-Apr-21 10:55 AM
Distance/Time
Traveled:
499nm/1:24
Distance/Time
To Go:
Arrived

Flight Plot

Page will automatically refresh every two minutes.

Flight plan parsing failed; only flown route is shown


Map Options




Map Legend


Flown Route
Filed Route
Departure Airport
Arrival Airport
Navaid (VOR, NDB)
Fix

Horizontal Profiles

Position Reports

Time Latitude Longitude Heading Altitude Ground
Speed
08-Apr-21 08:36 33.822507 -116.495962 233 480ft 0kts
08-Apr-21 08:37 33.822507 -116.495962 233 480ft 0kts
08-Apr-21 08:38 33.822507 -116.495962 233 480ft 0kts
08-Apr-21 08:39 33.822507 -116.495962 233 480ft 0kts
08-Apr-21 08:40 33.822507 -116.495962 233 480ft 0kts
08-Apr-21 08:41 33.822507 -116.495962 233 480ft 0kts
08-Apr-21 08:42 33.822507 -116.495962 233 480ft 0kts
08-Apr-21 08:43 33.822507 -116.495962 233 480ft 0kts
08-Apr-21 08:44 33.822507 -116.495962 233 480ft 0kts
08-Apr-21 08:45 33.822507 -116.495962 233 480ft 0kts
08-Apr-21 08:46 33.822507 -116.495962 233 480ft 0kts
08-Apr-21 08:47 33.822507 -116.495962 233 480ft 0kts
08-Apr-21 08:48 33.822507 -116.495962 233 480ft 0kts
08-Apr-21 08:49 33.822507 -116.495962 233 480ft 0kts
08-Apr-21 08:50 33.822507 -116.495962 233 480ft 0kts
08-Apr-21 08:51 33.822507 -116.495962 233 480ft 0kts
08-Apr-21 08:52 33.822507 -116.495962 233 480ft 0kts
08-Apr-21 08:53 33.822507 -116.495962 233 480ft 0kts
08-Apr-21 08:54 33.822507 -116.495962 233 480ft 0kts
08-Apr-21 08:55 33.822507 -116.495962 233 480ft 0kts
08-Apr-21 08:56 33.822507 -116.495962 233 480ft 0kts
08-Apr-21 08:57 33.822507 -116.495962 233 480ft 0kts
08-Apr-21 08:58 33.822507 -116.495962 233 480ft 0kts
08-Apr-21 08:59 33.822507 -116.495962 233 480ft 0kts
08-Apr-21 09:00 33.822507 -116.495962 233 480ft 0kts
08-Apr-21 09:01 33.822507 -116.495962 233 480ft 0kts
08-Apr-21 09:02 33.822507 -116.495962 233 480ft 0kts
08-Apr-21 09:03 33.822507 -116.495962 233 480ft 0kts
08-Apr-21 09:04 33.822507 -116.495962 233 480ft 0kts
08-Apr-21 09:05 33.822507 -116.495962 233 480ft 0kts
08-Apr-21 09:06 33.822507 -116.495962 233 480ft 0kts
08-Apr-21 09:07 33.822507 -116.495962 233 480ft 0kts
08-Apr-21 09:08 33.822507 -116.495962 233 480ft 0kts
08-Apr-21 09:09 33.822507 -116.495962 233 480ft 0kts
08-Apr-21 09:10 33.822507 -116.495962 233 480ft 0kts
08-Apr-21 09:11 33.822507 -116.495962 233 480ft 0kts
08-Apr-21 09:12 33.822507 -116.495962 233 480ft 0kts
08-Apr-21 09:13 33.822507 -116.495962 233 480ft 0kts
08-Apr-21 09:14 33.822507 -116.495962 233 480ft 0kts
08-Apr-21 09:15 33.822507 -116.495962 233 480ft 0kts
08-Apr-21 09:16 33.822507 -116.495962 233 480ft 0kts
08-Apr-21 09:17 33.822507 -116.495962 233 480ft 0kts
08-Apr-21 09:18 33.822507 -116.495962 233 480ft 0kts
08-Apr-21 09:19 33.822507 -116.495962 233 480ft 0kts
08-Apr-21 09:20 33.822507 -116.495962 233 480ft 0kts
08-Apr-21 09:21 33.822507 -116.495962 232 480ft 0kts
08-Apr-21 09:22 33.822507 -116.495962 233 480ft 0kts
08-Apr-21 09:23 33.822507 -116.495962 233 480ft 0kts
08-Apr-21 09:24 33.822507 -116.495962 233 480ft 0kts
08-Apr-21 09:25 33.822003 -116.496446 202 480ft 6kts
08-Apr-21 09:26 33.820543 -116.495470 161 480ft 10kts
08-Apr-21 09:27 33.819291 -116.496956 233 480ft 2kts
08-Apr-21 09:28 33.819268 -116.496994 233 480ft 0kts
08-Apr-21 09:29 33.819120 -116.497247 240 480ft 6kts
08-Apr-21 09:30 33.827795 -116.506016 323 490ft 133kts
08-Apr-21 09:31 33.865825 -116.542507 319 3096ft 187kts
08-Apr-21 09:32 33.911468 -116.570247 24 5899ft 227kts
08-Apr-21 09:33 33.906050 -116.497858 129 6984ft 272kts
08-Apr-21 09:34 33.865776 -116.419484 118 9071ft 278kts
08-Apr-21 09:35 33.842381 -116.330565 64 11433ft 295kts
08-Apr-21 09:36 33.882626 -116.242159 53 12990ft 315kts
08-Apr-21 09:37 33.929480 -116.152878 52 15133ft 315kts
08-Apr-21 09:38 33.977513 -116.061416 51 17735ft 333kts
08-Apr-21 09:39 34.028104 -115.964936 52 20123ft 350kts
08-Apr-21 09:40 34.080961 -115.863750 52 22330ft 365kts
08-Apr-21 09:41 34.136063 -115.757934 53 24337ft 380kts
08-Apr-21 09:42 34.193403 -115.647386 52 26050ft 398kts
08-Apr-21 09:43 34.282917 -115.585636 8 27449ft 381kts
08-Apr-21 09:44 34.383623 -115.544262 7 29344ft 382kts
08-Apr-21 09:45 34.484875 -115.502963 7 31096ft 383kts
08-Apr-21 09:46 34.585356 -115.461860 6 32887ft 378kts
08-Apr-21 09:47 34.684182 -115.421364 6 34527ft 374kts
08-Apr-21 09:48 34.784921 -115.380097 6 35030ft 400kts
08-Apr-21 09:49 34.893026 -115.335518 8 34988ft 423kts
08-Apr-21 09:50 35.006068 -115.288773 8 34985ft 440kts
08-Apr-21 09:51 35.123329 -115.240154 9 34987ft 453kts
08-Apr-21 09:52 35.243413 -115.190201 9 34986ft 457kts
08-Apr-21 09:53 35.363820 -115.139973 9 34976ft 459kts
08-Apr-21 09:54 35.484789 -115.089346 9 34991ft 460kts
08-Apr-21 09:55 35.583333 -114.977031 41 34994ft 499kts
08-Apr-21 09:56 35.675960 -114.850069 40 34992ft 498kts
08-Apr-21 09:57 35.768643 -114.723183 40 34994ft 498kts
08-Apr-21 09:58 35.861157 -114.596054 41 34997ft 499kts
08-Apr-21 09:59 35.953579 -114.468570 41 35010ft 498kts
08-Apr-21 10:00 36.045847 -114.340833 41 35011ft 497kts
08-Apr-21 10:01 36.149309 -114.237077 23 35004ft 476kts
08-Apr-21 10:02 36.261895 -114.150998 23 35023ft 477kts
08-Apr-21 10:03 36.374466 -114.064597 23 35044ft 477kts
08-Apr-21 10:04 36.472113 -113.948186 42 35064ft 497kts
08-Apr-21 10:05 36.561907 -113.817840 42 35054ft 496kts
08-Apr-21 10:06 36.651679 -113.687243 42 35041ft 496kts
08-Apr-21 10:07 36.741262 -113.556536 42 35042ft 495kts
08-Apr-21 10:08 36.830365 -113.426048 42 35044ft 494kts
08-Apr-21 10:09 36.919323 -113.295259 43 35031ft 494kts
08-Apr-21 10:10 37.009969 -113.167328 41 35032ft 492kts
08-Apr-21 10:11 37.100935 -113.039624 41 35034ft 492kts
08-Apr-21 10:12 37.191730 -112.911671 42 35081ft 492kts
08-Apr-21 10:13 37.282549 -112.783160 42 35127ft 493kts
08-Apr-21 10:14 37.373410 -112.654105 42 35132ft 493kts
08-Apr-21 10:15 37.464029 -112.524847 42 35134ft 493kts
08-Apr-21 10:16 37.554898 -112.394741 42 35136ft 493kts
08-Apr-21 10:17 37.641675 -112.261982 59 35138ft 502kts
08-Apr-21 10:18 37.701265 -112.106445 60 34381ft 478kts
08-Apr-21 10:19 37.758395 -111.956387 60 32753ft 477kts
08-Apr-21 10:20 37.815625 -111.805225 60 31088ft 473kts
08-Apr-21 10:21 37.871649 -111.656507 60 29606ft 464kts
08-Apr-21 10:22 37.926320 -111.510670 60 28138ft 455kts
08-Apr-21 10:23 37.979847 -111.367241 60 27140ft 445kts
08-Apr-21 10:24 38.031983 -111.226928 61 26121ft 436kts
08-Apr-21 10:25 38.082948 -111.089037 62 25101ft 427kts
08-Apr-21 10:26 38.133716 -110.951121 62 24116ft 449kts
08-Apr-21 10:27 38.187375 -110.804612 62 24029ft 461kts
08-Apr-21 10:28 38.241741 -110.655454 62 24030ft 467kts
08-Apr-21 10:29 38.296200 -110.505273 62 24023ft 470kts
08-Apr-21 10:30 38.350651 -110.354368 62 23722ft 446kts
08-Apr-21 10:31 38.399048 -110.219668 62 22489ft 407kts
08-Apr-21 10:32 38.445262 -110.090450 62 21099ft 394kts
08-Apr-21 10:33 38.489655 -109.965761 62 19592ft 380kts
08-Apr-21 10:34 38.534009 -109.840705 63 18992ft 396kts
08-Apr-21 10:35 38.579974 -109.710472 63 18993ft 407kts
08-Apr-21 10:36 38.626618 -109.577694 62 18833ft 411kts
08-Apr-21 10:37 38.679592 -109.454131 49 17348ft 385kts
08-Apr-21 10:38 38.742233 -109.346065 50 15861ft 371kts
08-Apr-21 10:39 38.802303 -109.242016 50 14998ft 354kts
08-Apr-21 10:40 38.859544 -109.142517 50 15004ft 357kts
08-Apr-21 10:42 38.934224 -109.065537 20 14325ft 334kts
08-Apr-21 10:43 39.013846 -109.019261 20 12846ft 299kts
08-Apr-21 10:44 39.087170 -108.977644 19 11330ft 277kts
08-Apr-21 10:45 39.151405 -108.927946 29 10021ft 255kts
08-Apr-21 10:46 39.205349 -108.884606 29 9910ft 207kts
08-Apr-21 10:47 39.245949 -108.836334 70 8777ft 196kts
08-Apr-21 10:48 39.248800 -108.779519 109 8112ft 151kts
08-Apr-21 10:49 39.231752 -108.732604 119 7873ft 140kts
08-Apr-21 10:50 39.212173 -108.690183 124 6969ft 133kts
08-Apr-21 10:51 39.192154 -108.650750 123 6575ft 130kts
08-Apr-21 10:52 39.171851 -108.611671 127 5961ft 129kts
08-Apr-21 10:53 39.152774 -108.576947 126 5369ft 114kts
08-Apr-21 10:54 39.134415 -108.543323 126 4821ft 114kts
08-Apr-21 10:55 39.126303 -108.530089 215 4838ft 7kts
08-Apr-21 10:56 39.124879 -108.531333 216 4827ft 6kts
08-Apr-21 10:57 39.124511 -108.531308 80 4826ft 0kts
08-Apr-21 10:58 39.124511 -108.531308 80 4826ft 0kts
08-Apr-21 10:59 39.124511 -108.531308 80 4826ft 0kts
08-Apr-21 11:00 39.124511 -108.531308 80 4826ft 0kts
08-Apr-21 11:01 39.124511 -108.531308 80 4826ft 0kts

Navigation Log

Ident Type
Flight plan parsing failed, navigation log unavailable